sensor_id;sensor_type;location;lat;lon;timestamp;P1;durP1;ratioP1;P2;durP2;ratioP2
29940;SDS011;16801;53.562;10.038;2023-12-14T00:00:04;1.73;;;1.30;;
29940;SDS011;16801;53.562;10.038;2023-12-14T00:03:27;1.93;;;1.53;;
29940;SDS011;16801;53.562;10.038;2023-12-14T00:06:48;2.90;;;1.70;;
29940;SDS011;16801;53.562;10.038;2023-12-14T00:10:09;1.30;;;1.20;;
29940;SDS011;16801;53.562;10.038;2023-12-14T00:13:33;2.53;;;2.30;;
29940;SDS011;16801;53.562;10.038;2023-12-14T00:16:54;3.80;;;1.20;;
29940;SDS011;16801;53.562;10.038;2023-12-14T00:20:15;1.50;;;1.40;;
29940;SDS011;16801;53.562;10.038;2023-12-14T00:23:37;1.80;;;1.53;;
29940;SDS011;16801;53.562;10.038;2023-12-14T00:26:57;1.60;;;1.40;;
29940;SDS011;16801;53.562;10.038;2023-12-14T00:30:21;3.00;;;2.70;;
29940;SDS011;16801;53.562;10.038;2023-12-14T00:33:42;3.20;;;1.97;;
29940;SDS011;16801;53.562;10.038;2023-12-14T00:37:04;2.13;;;1.93;;
29940;SDS011;16801;53.562;10.038;2023-12-14T00:40:25;1.67;;;1.57;;
29940;SDS011;16801;53.562;10.038;2023-12-14T00:43:46;2.90;;;1.43;;
29940;SDS011;16801;53.562;10.038;2023-12-14T00:47:08;2.63;;;1.63;;
29940;SDS011;16801;53.562;10.038;2023-12-14T00:50:29;3.83;;;1.97;;
29940;SDS011;16801;53.562;10.038;2023-12-14T00:53:50;1.27;;;1.17;;
29940;SDS011;16801;53.562;10.038;2023-12-14T00:57:11;1.40;;;1.30;;
29940;SDS011;16801;53.562;10.038;2023-12-14T01:00:32;2.90;;;1.63;;
29940;SDS011;16801;53.562;10.038;2023-12-14T01:03:54;2.40;;;2.17;;
29940;SDS011;16801;53.562;10.038;2023-12-14T01:07:15;1.80;;;1.60;;
29940;SDS011;16801;53.562;10.038;2023-12-14T01:10:36;1.20;;;1.20;;
29940;SDS011;16801;53.562;10.038;2023-12-14T01:13:57;1.40;;;1.30;;
29940;SDS011;16801;53.562;10.038;2023-12-14T01:17:18;1.00;;;0.90;;
29940;SDS011;16801;53.562;10.038;2023-12-14T01:20:41;1.40;;;1.23;;
29940;SDS011;16801;53.562;10.038;2023-12-14T01:24:02;3.27;;;2.07;;
29940;SDS011;16801;53.562;10.038;2023-12-14T01:27:23;1.30;;;1.20;;
29940;SDS011;16801;53.562;10.038;2023-12-14T01:30:44;2.20;;;1.97;;
29940;SDS011;16801;53.562;10.038;2023-12-14T01:34:05;1.50;;;1.40;;
29940;SDS011;16801;53.562;10.038;2023-12-14T01:37:27;2.50;;;1.77;;
29940;SDS011;16801;53.562;10.038;2023-12-14T01:40:48;3.20;;;1.87;;
29940;SDS011;16801;53.562;10.038;2023-12-14T01:44:09;2.10;;;1.30;;
29940;SDS011;16801;53.562;10.038;2023-12-14T01:47:30;3.33;;;1.67;;
29940;SDS011;16801;53.562;10.038;2023-12-14T01:50:51;2.40;;;1.97;;
29940;SDS011;16801;53.562;10.038;2023-12-14T01:54:14;2.03;;;1.77;;
29940;SDS011;16801;53.562;10.038;2023-12-14T01:57:34;1.60;;;1.40;;
29940;SDS011;16801;53.562;10.038;2023-12-14T02:00:56;3.07;;;2.77;;
29940;SDS011;16801;53.562;10.038;2023-12-14T02:04:24;2.90;;;1.20;;
29940;SDS011;16801;53.562;10.038;2023-12-14T02:07:46;2.77;;;1.93;;
29940;SDS011;16801;53.562;10.038;2023-12-14T02:11:09;1.30;;;1.30;;
29940;SDS011;16801;53.562;10.038;2023-12-14T02:14:29;0.80;;;0.80;;
29940;SDS011;16801;53.562;10.038;2023-12-14T02:17:51;2.43;;;1.50;;
29940;SDS011;16801;53.562;10.038;2023-12-14T02:21:12;2.13;;;1.23;;
29940;SDS011;16801;53.562;10.038;2023-12-14T02:24:34;2.73;;;1.53;;
29940;SDS011;16801;53.562;10.038;2023-12-14T02:27:55;1.97;;;1.63;;
29940;SDS011;16801;53.562;10.038;2023-12-14T02:31:17;3.90;;;1.10;;
29940;SDS011;16801;53.562;10.038;2023-12-14T02:34:38;1.90;;;1.77;;
29940;SDS011;16801;53.562;10.038;2023-12-14T02:37:59;3.03;;;1.60;;
29940;SDS011;16801;53.562;10.038;2023-12-14T02:41:21;2.87;;;2.37;;
29940;SDS011;16801;53.562;10.038;2023-12-14T02:44:42;1.97;;;1.13;;
29940;SDS011;16801;53.562;10.038;2023-12-14T02:48:03;2.23;;;1.93;;
29940;SDS011;16801;53.562;10.038;2023-12-14T02:51:24;1.73;;;1.63;;
29940;SDS011;16801;53.562;10.038;2023-12-14T02:54:45;2.30;;;1.37;;
29940;SDS011;16801;53.562;10.038;2023-12-14T02:58:08;3.47;;;1.90;;
29940;SDS011;16801;53.562;10.038;2023-12-14T03:01:29;3.17;;;2.27;;
29940;SDS011;16801;53.562;10.038;2023-12-14T03:04:50;1.67;;;1.57;;
29940;SDS011;16801;53.562;10.038;2023-12-14T03:08:11;2.43;;;1.30;;
29940;SDS011;16801;53.562;10.038;2023-12-14T03:11:31;1.00;;;1.00;;
29940;SDS011;16801;53.562;10.038;2023-12-14T03:14:54;0.83;;;0.80;;
29940;SDS011;16801;53.562;10.038;2023-12-14T03:18:15;1.90;;;1.80;;
29940;SDS011;16801;53.562;10.038;2023-12-14T03:21:35;2.37;;;1.80;;
29940;SDS011;16801;53.562;10.038;2023-12-14T03:24:56;1.80;;;1.30;;
29940;SDS011;16801;53.562;10.038;2023-12-14T03:28:17;1.37;;;1.27;;
29940;SDS011;16801;53.562;10.038;2023-12-14T03:31:40;1.30;;;1.20;;
29940;SDS011;16801;53.562;10.038;2023-12-14T03:35:01;1.70;;;1.60;;
29940;SDS011;16801;53.562;10.038;2023-12-14T03:38:22;2.53;;;1.63;;
29940;SDS011;16801;53.562;10.038;2023-12-14T03:41:43;2.07;;;1.60;;
29940;SDS011;16801;53.562;10.038;2023-12-14T03:45:04;3.23;;;1.40;;
29940;SDS011;16801;53.562;10.038;2023-12-14T03:48:27;1.57;;;1.47;;
29940;SDS011;16801;53.562;10.038;2023-12-14T03:51:48;1.37;;;1.27;;
29940;SDS011;16801;53.562;10.038;2023-12-14T03:55:09;1.43;;;1.33;;
29940;SDS011;16801;53.562;10.038;2023-12-14T03:58:30;1.57;;;1.47;;
29940;SDS011;16801;53.562;10.038;2023-12-14T04:01:51;2.07;;;1.90;;
29940;SDS011;16801;53.562;10.038;2023-12-14T04:05:13;2.60;;;1.83;;
29940;SDS011;16801;53.562;10.038;2023-12-14T04:08:34;1.87;;;1.77;;
29940;SDS011;16801;53.562;10.038;2023-12-14T04:11:55;2.67;;;2.13;;
29940;SDS011;16801;53.562;10.038;2023-12-14T04:15:16;1.90;;;1.70;;
29940;SDS011;16801;53.562;10.038;2023-12-14T04:18:37;1.50;;;1.40;;
29940;SDS011;16801;53.562;10.038;2023-12-14T04:22:00;3.47;;;1.90;;
29940;SDS011;16801;53.562;10.038;2023-12-14T04:25:21;2.00;;;1.70;;
29940;SDS011;16801;53.562;10.038;2023-12-14T04:28:42;2.00;;;1.80;;
29940;SDS011;16801;53.562;10.038;2023-12-14T04:32:05;1.50;;;1.40;;
29940;SDS011;16801;53.562;10.038;2023-12-14T04:35:26;2.57;;;2.10;;
29940;SDS011;16801;53.562;10.038;2023-12-14T04:38:48;4.90;;;2.23;;
29940;SDS011;16801;53.562;10.038;2023-12-14T04:42:09;1.30;;;1.13;;
29940;SDS011;16801;53.562;10.038;2023-12-14T04:45:30;1.40;;;1.30;;
29940;SDS011;16801;53.562;10.038;2023-12-14T04:48:51;1.50;;;1.40;;
29940;SDS011;16801;53.562;10.038;2023-12-14T04:52:12;1.67;;;1.50;;
29940;SDS011;16801;53.562;10.038;2023-12-14T04:55:34;3.17;;;1.93;;
29940;SDS011;16801;53.562;10.038;2023-12-14T04:58:55;2.40;;;1.50;;
29940;SDS011;16801;53.562;10.038;2023-12-14T05:02:16;3.53;;;2.97;;
29940;SDS011;16801;53.562;10.038;2023-12-14T05:05:37;2.73;;;1.43;;
29940;SDS011;16801;53.562;10.038;2023-12-14T05:08:58;6.83;;;2.60;;
29940;SDS011;16801;53.562;10.038;2023-12-14T05:12:22;2.53;;;2.30;;
29940;SDS011;16801;53.562;10.038;2023-12-14T05:15:44;2.90;;;2.53;;
29940;SDS011;16801;53.562;10.038;2023-12-14T05:19:05;3.67;;;2.60;;
29940;SDS011;16801;53.562;10.038;2023-12-14T05:22:26;3.13;;;1.87;;
29940;SDS011;16801;53.562;10.038;2023-12-14T05:25:47;2.50;;;1.77;;
29940;SDS011;16801;53.562;10.038;2023-12-14T05:29:09;3.33;;;2.90;;
29940;SDS011;16801;53.562;10.038;2023-12-14T05:32:30;5.50;;;3.17;;
29940;SDS011;16801;53.562;10.038;2023-12-14T05:35:51;5.13;;;2.13;;
29940;SDS011;16801;53.562;10.038;2023-12-14T05:39:12;2.83;;;2.63;;
29940;SDS011;16801;53.562;10.038;2023-12-14T05:42:33;2.73;;;2.53;;
29940;SDS011;16801;53.562;10.038;2023-12-14T05:45:55;3.97;;;3.63;;
29940;SDS011;16801;53.562;10.038;2023-12-14T05:49:16;2.30;;;2.10;;
29940;SDS011;16801;53.562;10.038;2023-12-14T05:52:37;2.70;;;2.50;;
29940;SDS011;16801;53.562;10.038;2023-12-14T05:55:58;2.63;;;2.30;;
29940;SDS011;16801;53.562;10.038;2023-12-14T05:59:19;5.07;;;2.10;;
29940;SDS011;16801;53.562;10.038;2023-12-14T06:02:41;3.47;;;2.07;;
29940;SDS011;16801;53.562;10.038;2023-12-14T06:06:02;3.77;;;2.33;;
29940;SDS011;16801;53.562;10.038;2023-12-14T06:09:23;2.70;;;2.07;;
29940;SDS011;16801;53.562;10.038;2023-12-14T06:12:51;4.63;;;2.67;;
29940;SDS011;16801;53.562;10.038;2023-12-14T06:16:12;3.27;;;2.17;;
29940;SDS011;16801;53.562;10.038;2023-12-14T06:19:34;4.93;;;4.43;;
29940;SDS011;16801;53.562;10.038;2023-12-14T06:22:55;5.77;;;5.17;;
29940;SDS011;16801;53.562;10.038;2023-12-14T06:26:16;9.60;;;3.40;;
29940;SDS011;16801;53.562;10.038;2023-12-14T06:29:37;3.23;;;2.77;;
29940;SDS011;16801;53.562;10.038;2023-12-14T06:32:58;2.70;;;2.17;;
29940;SDS011;16801;53.562;10.038;2023-12-14T06:36:20;3.23;;;2.60;;
29940;SDS011;16801;53.562;10.038;2023-12-14T06:39:41;4.73;;;2.50;;
29940;SDS011;16801;53.562;10.038;2023-12-14T06:43:03;3.50;;;3.20;;
29940;SDS011;16801;53.562;10.038;2023-12-14T06:46:24;2.87;;;2.67;;
29940;SDS011;16801;53.562;10.038;2023-12-14T06:49:45;2.43;;;2.23;;
29940;SDS011;16801;53.562;10.038;2023-12-14T06:53:07;4.97;;;3.87;;
29940;SDS011;16801;53.562;10.038;2023-12-14T06:56:28;6.37;;;5.77;;
29940;SDS011;16801;53.562;10.038;2023-12-14T06:59:49;9.07;;;7.50;;
29940;SDS011;16801;53.562;10.038;2023-12-14T07:03:10;3.87;;;3.40;;
29940;SDS011;16801;53.562;10.038;2023-12-14T07:06:31;4.17;;;3.50;;
29940;SDS011;16801;53.562;10.038;2023-12-14T07:09:55;3.30;;;2.60;;
29940;SDS011;16801;53.562;10.038;2023-12-14T07:13:16;8.10;;;2.73;;
29940;SDS011;16801;53.562;10.038;2023-12-14T07:16:37;6.83;;;3.93;;
29940;SDS011;16801;53.562;10.038;2023-12-14T07:19:58;3.40;;;2.50;;
29940;SDS011;16801;53.562;10.038;2023-12-14T07:23:19;3.50;;;2.73;;
29940;SDS011;16801;53.562;10.038;2023-12-14T07:26:41;2.87;;;2.67;;
29940;SDS011;16801;53.562;10.038;2023-12-14T07:30:03;4.10;;;2.73;;
29940;SDS011;16801;53.562;10.038;2023-12-14T07:33:24;3.83;;;3.50;;
29940;SDS011;16801;53.562;10.038;2023-12-14T07:36:45;3.20;;;2.90;;
29940;SDS011;16801;53.562;10.038;2023-12-14T07:40:07;2.50;;;2.30;;
29940;SDS011;16801;53.562;10.038;2023-12-14T07:43:30;3.37;;;3.07;;
29940;SDS011;16801;53.562;10.038;2023-12-14T07:46:51;3.70;;;3.00;;
29940;SDS011;16801;53.562;10.038;2023-12-14T07:50:11;4.57;;;2.70;;
29940;SDS011;16801;53.562;10.038;2023-12-14T07:53:32;4.30;;;3.20;;
29940;SDS011;16801;53.562;10.038;2023-12-14T07:56:53;4.63;;;3.63;;
29940;SDS011;16801;53.562;10.038;2023-12-14T08:00:16;9.63;;;8.00;;
29940;SDS011;16801;53.562;10.038;2023-12-14T08:03:38;5.63;;;3.33;;
29940;SDS011;16801;53.562;10.038;2023-12-14T08:06:59;4.00;;;3.07;;
29940;SDS011;16801;53.562;10.038;2023-12-14T08:10:20;4.23;;;3.87;;
29940;SDS011;16801;53.562;10.038;2023-12-14T08:13:41;2.80;;;2.53;;
29940;SDS011;16801;53.562;10.038;2023-12-14T08:17:03;2.87;;;2.63;;
29940;SDS011;16801;53.562;10.038;2023-12-14T08:20:25;5.53;;;3.60;;
29940;SDS011;16801;53.562;10.038;2023-12-14T08:23:45;3.97;;;2.83;;
29940;SDS011;16801;53.562;10.038;2023-12-14T08:27:06;3.70;;;3.40;;
29940;SDS011;16801;53.562;10.038;2023-12-14T08:30:28;3.60;;;3.23;;
29940;SDS011;16801;53.562;10.038;2023-12-14T08:33:50;4.70;;;2.67;;
29940;SDS011;16801;53.562;10.038;2023-12-14T08:37:12;5.00;;;4.47;;
29940;SDS011;16801;53.562;10.038;2023-12-14T08:40:33;4.53;;;4.10;;
29940;SDS011;16801;53.562;10.038;2023-12-14T08:43:54;2.77;;;2.47;;
29940;SDS011;16801;53.562;10.038;2023-12-14T08:47:15;2.53;;;2.27;;
29940;SDS011;16801;53.562;10.038;2023-12-14T08:50:37;3.73;;;2.33;;
29940;SDS011;16801;53.562;10.038;2023-12-14T08:53:58;4.33;;;2.67;;
29940;SDS011;16801;53.562;10.038;2023-12-14T08:57:19;5.37;;;3.77;;
29940;SDS011;16801;53.562;10.038;2023-12-14T09:00:40;3.43;;;2.80;;
29940;SDS011;16801;53.562;10.038;2023-12-14T09:04:02;3.17;;;2.87;;
29940;SDS011;16801;53.562;10.038;2023-12-14T09:07:24;4.00;;;2.80;;
29940;SDS011;16801;53.562;10.038;2023-12-14T09:10:45;3.70;;;2.47;;
29940;SDS011;16801;53.562;10.038;2023-12-14T09:14:06;4.33;;;2.27;;
29940;SDS011;16801;53.562;10.038;2023-12-14T09:17:27;4.83;;;2.33;;
29940;SDS011;16801;53.562;10.038;2023-12-14T09:20:52;2.90;;;2.27;;
29940;SDS011;16801;53.562;10.038;2023-12-14T09:24:14;2.50;;;2.30;;
29940;SDS011;16801;53.562;10.038;2023-12-14T09:27:35;2.77;;;2.10;;
29940;SDS011;16801;53.562;10.038;2023-12-14T09:30:56;2.90;;;2.60;;
29940;SDS011;16801;53.562;10.038;2023-12-14T09:34:17;4.40;;;3.30;;
29940;SDS011;16801;53.562;10.038;2023-12-14T09:37:38;3.57;;;2.23;;
29940;SDS011;16801;53.562;10.038;2023-12-14T09:41:02;3.20;;;2.90;;
29940;SDS011;16801;53.562;10.038;2023-12-14T09:44:23;2.50;;;2.30;;
29940;SDS011;16801;53.562;10.038;2023-12-14T09:47:45;5.07;;;2.90;;
29940;SDS011;16801;53.562;10.038;2023-12-14T09:51:06;2.67;;;2.13;;
29940;SDS011;16801;53.562;10.038;2023-12-14T09:54:28;3.23;;;2.83;;
29940;SDS011;16801;53.562;10.038;2023-12-14T09:57:51;4.27;;;2.10;;
29940;SDS011;16801;53.562;10.038;2023-12-14T10:01:20;2.47;;;2.27;;
29940;SDS011;16801;53.562;10.038;2023-12-14T10:04:43;4.23;;;2.83;;
29940;SDS011;16801;53.562;10.038;2023-12-14T10:08:04;3.37;;;3.07;;
29940;SDS011;16801;53.562;10.038;2023-12-14T10:11:26;3.27;;;3.03;;
29940;SDS011;16801;53.562;10.038;2023-12-14T10:14:48;2.43;;;2.27;;
29940;SDS011;16801;53.562;10.038;2023-12-14T10:18:21;4.67;;;2.70;;
29940;SDS011;16801;53.562;10.038;2023-12-14T10:21:43;3.87;;;2.67;;
29940;SDS011;16801;53.562;10.038;2023-12-14T10:25:06;2.70;;;2.43;;
29940;SDS011;16801;53.562;10.038;2023-12-14T10:28:29;7.23;;;3.07;;
29940;SDS011;16801;53.562;10.038;2023-12-14T10:31:51;2.67;;;2.47;;
29940;SDS011;16801;53.562;10.038;2023-12-14T10:35:13;3.37;;;3.07;;
29940;SDS011;16801;53.562;10.038;2023-12-14T10:38:36;3.50;;;3.20;;
29940;SDS011;16801;53.562;10.038;2023-12-14T10:41:58;6.40;;;3.10;;
29940;SDS011;16801;53.562;10.038;2023-12-14T10:45:23;5.40;;;2.83;;
29940;SDS011;16801;53.562;10.038;2023-12-14T10:48:49;2.87;;;2.43;;
29940;SDS011;16801;53.562;10.038;2023-12-14T10:52:11;4.80;;;2.83;;
29940;SDS011;16801;53.562;10.038;2023-12-14T10:55:33;2.47;;;2.17;;
29940;SDS011;16801;53.562;10.038;2023-12-14T10:58:58;3.10;;;2.80;;
29940;SDS011;16801;53.562;10.038;2023-12-14T11:02:19;3.40;;;3.10;;
29940;SDS011;16801;53.562;10.038;2023-12-14T11:05:41;2.20;;;2.00;;
29940;SDS011;16801;53.562;10.038;2023-12-14T11:09:04;3.63;;;3.33;;
29940;SDS011;16801;53.562;10.038;2023-12-14T11:12:26;2.17;;;2.07;;
29940;SDS011;16801;53.562;10.038;2023-12-14T11:15:49;2.97;;;2.20;;
29940;SDS011;16801;53.562;10.038;2023-12-14T11:19:23;2.93;;;2.47;;
29940;SDS011;16801;53.562;10.038;2023-12-14T11:22:46;5.07;;;3.03;;
29940;SDS011;16801;53.562;10.038;2023-12-14T11:26:08;5.43;;;3.07;;
29940;SDS011;16801;53.562;10.038;2023-12-14T11:29:30;4.80;;;3.13;;
29940;SDS011;16801;53.562;10.038;2023-12-14T11:32:53;5.03;;;3.63;;
29940;SDS011;16801;53.562;10.038;2023-12-14T11:36:13;3.43;;;3.13;;
29940;SDS011;16801;53.562;10.038;2023-12-14T11:39:36;5.07;;;4.23;;
29940;SDS011;16801;53.562;10.038;2023-12-14T11:42:57;3.10;;;2.30;;
29940;SDS011;16801;53.562;10.038;2023-12-14T11:46:19;3.07;;;2.87;;
29940;SDS011;16801;53.562;10.038;2023-12-14T11:49:40;3.00;;;2.80;;
29940;SDS011;16801;53.562;10.038;2023-12-14T11:53:01;3.23;;;2.93;;
29940;SDS011;16801;53.562;10.038;2023-12-14T11:56:24;5.53;;;4.30;;
29940;SDS011;16801;53.562;10.038;2023-12-14T11:59:45;6.87;;;5.77;;
29940;SDS011;16801;53.562;10.038;2023-12-14T12:03:06;11.60;;;10.23;;
29940;SDS011;16801;53.562;10.038;2023-12-14T12:06:28;8.60;;;4.40;;
29940;SDS011;16801;53.562;10.038;2023-12-14T12:09:49;4.13;;;3.77;;
29940;SDS011;16801;53.562;10.038;2023-12-14T12:13:13;3.57;;;3.27;;
29940;SDS011;16801;53.562;10.038;2023-12-14T12:16:36;4.60;;;2.70;;
29940;SDS011;16801;53.562;10.038;2023-12-14T12:19:56;3.13;;;2.83;;
29940;SDS011;16801;53.562;10.038;2023-12-14T12:23:17;3.67;;;3.37;;
29940;SDS011;16801;53.562;10.038;2023-12-14T12:26:39;5.07;;;2.47;;
29940;SDS011;16801;53.562;10.038;2023-12-14T12:30:01;3.83;;;3.23;;
29940;SDS011;16801;53.562;10.038;2023-12-14T12:33:23;3.37;;;3.13;;
29940;SDS011;16801;53.562;10.038;2023-12-14T12:36:45;6.80;;;4.27;;
29940;SDS011;16801;53.562;10.038;2023-12-14T12:40:06;3.80;;;2.83;;
29940;SDS011;16801;53.562;10.038;2023-12-14T12:43:28;4.50;;;4.03;;
29940;SDS011;16801;53.562;10.038;2023-12-14T12:46:50;2.93;;;2.63;;
29940;SDS011;16801;53.562;10.038;2023-12-14T12:50:15;4.13;;;3.73;;
29940;SDS011;16801;53.562;10.038;2023-12-14T12:53:36;6.07;;;5.57;;
29940;SDS011;16801;53.562;10.038;2023-12-14T12:56:56;6.07;;;5.10;;
29940;SDS011;16801;53.562;10.038;2023-12-14T13:00:17;4.17;;;3.80;;
29940;SDS011;16801;53.562;10.038;2023-12-14T13:03:40;4.00;;;3.03;;
29940;SDS011;16801;53.562;10.038;2023-12-14T13:07:01;6.60;;;4.23;;
29940;SDS011;16801;53.562;10.038;2023-12-14T13:10:23;3.37;;;3.00;;
29940;SDS011;16801;53.562;10.038;2023-12-14T13:13:46;6.50;;;4.00;;
29940;SDS011;16801;53.562;10.038;2023-12-14T13:17:07;4.73;;;4.43;;
29940;SDS011;16801;53.562;10.038;2023-12-14T13:20:30;4.20;;;3.87;;
29940;SDS011;16801;53.562;10.038;2023-12-14T13:23:51;6.10;;;4.67;;
29940;SDS011;16801;53.562;10.038;2023-12-14T13:27:12;3.83;;;3.47;;
29940;SDS011;16801;53.562;10.038;2023-12-14T13:30:33;5.10;;;3.33;;
29940;SDS011;16801;53.562;10.038;2023-12-14T13:33:54;3.00;;;2.80;;
29940;SDS011;16801;53.562;10.038;2023-12-14T13:37:16;5.93;;;5.20;;
29940;SDS011;16801;53.562;10.038;2023-12-14T13:40:37;3.70;;;3.40;;
29940;SDS011;16801;53.562;10.038;2023-12-14T13:43:58;5.73;;;3.53;;
29940;SDS011;16801;53.562;10.038;2023-12-14T13:47:19;4.37;;;3.40;;
29940;SDS011;16801;53.562;10.038;2023-12-14T13:50:40;3.73;;;3.40;;
29940;SDS011;16801;53.562;10.038;2023-12-14T13:54:02;3.57;;;2.60;;
29940;SDS011;16801;53.562;10.038;2023-12-14T13:57:23;6.63;;;3.77;;
29940;SDS011;16801;53.562;10.038;2023-12-14T14:00:44;3.57;;;3.10;;
29940;SDS011;16801;53.562;10.038;2023-12-14T14:04:05;3.80;;;3.27;;
29940;SDS011;16801;53.562;10.038;2023-12-14T14:07:26;4.20;;;3.03;;
29940;SDS011;16801;53.562;10.038;2023-12-14T14:10:48;3.43;;;2.87;;
29940;SDS011;16801;53.562;10.038;2023-12-14T14:14:09;3.03;;;2.80;;
29940;SDS011;16801;53.562;10.038;2023-12-14T14:17:30;7.53;;;3.20;;
29940;SDS011;16801;53.562;10.038;2023-12-14T14:20:52;3.77;;;3.47;;
29940;SDS011;16801;53.562;10.038;2023-12-14T14:24:12;3.40;;;3.10;;
29940;SDS011;16801;53.562;10.038;2023-12-14T14:27:35;5.27;;;3.97;;
29940;SDS011;16801;53.562;10.038;2023-12-14T14:30:57;4.37;;;3.10;;
29940;SDS011;16801;53.562;10.038;2023-12-14T14:34:18;4.23;;;2.73;;
29940;SDS011;16801;53.562;10.038;2023-12-14T14:37:39;3.80;;;3.40;;
29940;SDS011;16801;53.562;10.038;2023-12-14T14:41:04;4.97;;;4.07;;
29940;SDS011;16801;53.562;10.038;2023-12-14T14:44:26;2.77;;;2.47;;
29940;SDS011;16801;53.562;10.038;2023-12-14T14:47:47;4.20;;;3.03;;
29940;SDS011;16801;53.562;10.038;2023-12-14T14:51:08;2.87;;;2.67;;
29940;SDS011;16801;53.562;10.038;2023-12-14T14:54:29;6.63;;;3.07;;
29940;SDS011;16801;53.562;10.038;2023-12-14T14:57:50;6.87;;;2.83;;
29940;SDS011;16801;53.562;10.038;2023-12-14T15:01:12;6.03;;;3.30;;
29940;SDS011;16801;53.562;10.038;2023-12-14T15:04:33;2.90;;;2.70;;
29940;SDS011;16801;53.562;10.038;2023-12-14T15:07:54;6.63;;;4.23;;
29940;SDS011;16801;53.562;10.038;2023-12-14T15:11:18;5.97;;;3.77;;
29940;SDS011;16801;53.562;10.038;2023-12-14T15:14:39;13.87;;;11.20;;
29940;SDS011;16801;53.562;10.038;2023-12-14T15:18:02;10.97;;;9.87;;
29940;SDS011;16801;53.562;10.038;2023-12-14T15:21:24;6.07;;;4.50;;
29940;SDS011;16801;53.562;10.038;2023-12-14T15:24:45;4.77;;;4.23;;
29940;SDS011;16801;53.562;10.038;2023-12-14T15:28:06;2.83;;;2.63;;
29940;SDS011;16801;53.562;10.038;2023-12-14T15:31:28;3.10;;;2.67;;
29940;SDS011;16801;53.562;10.038;2023-12-14T15:34:50;4.53;;;4.10;;
29940;SDS011;16801;53.562;10.038;2023-12-14T15:38:11;5.60;;;5.10;;
29940;SDS011;16801;53.562;10.038;2023-12-14T15:41:32;6.73;;;5.17;;
29940;SDS011;16801;53.562;10.038;2023-12-14T15:44:53;12.30;;;11.00;;
29940;SDS011;16801;53.562;10.038;2023-12-14T15:48:14;15.23;;;13.63;;
29940;SDS011;16801;53.562;10.038;2023-12-14T15:51:39;12.57;;;9.20;;
29940;SDS011;16801;53.562;10.038;2023-12-14T15:55:00;9.63;;;6.17;;
29940;SDS011;16801;53.562;10.038;2023-12-14T15:58:24;4.77;;;4.33;;
29940;SDS011;16801;53.562;10.038;2023-12-14T16:01:45;6.00;;;5.40;;
29940;SDS011;16801;53.562;10.038;2023-12-14T16:05:07;7.83;;;6.23;;
29940;SDS011;16801;53.562;10.038;2023-12-14T16:08:30;3.97;;;3.53;;
29940;SDS011;16801;53.562;10.038;2023-12-14T16:11:51;4.87;;;3.30;;
29940;SDS011;16801;53.562;10.038;2023-12-14T16:15:11;8.07;;;7.30;;
29940;SDS011;16801;53.562;10.038;2023-12-14T16:18:32;5.50;;;4.77;;
29940;SDS011;16801;53.562;10.038;2023-12-14T16:21:53;4.00;;;3.60;;
29940;SDS011;16801;53.562;10.038;2023-12-14T16:25:16;13.53;;;12.23;;
29940;SDS011;16801;53.562;10.038;2023-12-14T16:28:37;13.97;;;11.30;;
29940;SDS011;16801;53.562;10.038;2023-12-14T16:31:58;5.87;;;5.37;;
29940;SDS011;16801;53.562;10.038;2023-12-14T16:35:19;11.40;;;10.30;;
29940;SDS011;16801;53.562;10.038;2023-12-14T16:38:41;6.03;;;5.50;;
29940;SDS011;16801;53.562;10.038;2023-12-14T16:42:05;8.53;;;7.60;;
29940;SDS011;16801;53.562;10.038;2023-12-14T16:45:26;6.60;;;5.00;;
29940;SDS011;16801;53.562;10.038;2023-12-14T16:48:47;8.57;;;7.53;;
29940;SDS011;16801;53.562;10.038;2023-12-14T16:52:09;25.60;;;19.53;;
29940;SDS011;16801;53.562;10.038;2023-12-14T16:55:30;8.57;;;7.73;;
29940;SDS011;16801;53.562;10.038;2023-12-14T16:58:53;4.67;;;4.27;;
29940;SDS011;16801;53.562;10.038;2023-12-14T17:02:14;4.57;;;4.17;;
29940;SDS011;16801;53.562;10.038;2023-12-14T17:05:34;5.13;;;4.00;;
29940;SDS011;16801;53.562;10.038;2023-12-14T17:08:55;4.50;;;4.10;;
29940;SDS011;16801;53.562;10.038;2023-12-14T17:12:16;4.77;;;3.40;;
29940;SDS011;16801;53.562;10.038;2023-12-14T17:15:39;19.97;;;14.10;;
29940;SDS011;16801;53.562;10.038;2023-12-14T17:18:59;6.50;;;4.97;;
29940;SDS011;16801;53.562;10.038;2023-12-14T17:22:20;5.50;;;5.00;;
29940;SDS011;16801;53.562;10.038;2023-12-14T17:25:41;4.53;;;3.97;;
29940;SDS011;16801;53.562;10.038;2023-12-14T17:29:02;4.20;;;3.40;;
29940;SDS011;16801;53.562;10.038;2023-12-14T17:32:26;4.63;;;3.83;;
29940;SDS011;16801;53.562;10.038;2023-12-14T17:35:47;6.53;;;3.93;;
29940;SDS011;16801;53.562;10.038;2023-12-14T17:39:08;3.80;;;3.47;;
29940;SDS011;16801;53.562;10.038;2023-12-14T17:42:29;4.97;;;3.83;;
29940;SDS011;16801;53.562;10.038;2023-12-14T17:45:50;5.63;;;5.13;;
29940;SDS011;16801;53.562;10.038;2023-12-14T17:49:12;4.57;;;4.13;;
29940;SDS011;16801;53.562;10.038;2023-12-14T17:52:33;23.50;;;18.63;;
29940;SDS011;16801;53.562;10.038;2023-12-14T17:55:54;31.97;;;23.87;;
29940;SDS011;16801;53.562;10.038;2023-12-14T17:59:15;30.70;;;26.03;;
29940;SDS011;16801;53.562;10.038;2023-12-14T18:02:36;34.33;;;26.60;;
29940;SDS011;16801;53.562;10.038;2023-12-14T18:05:58;9.03;;;8.13;;
29940;SDS011;16801;53.562;10.038;2023-12-14T18:09:20;4.53;;;4.13;;
29940;SDS011;16801;53.562;10.038;2023-12-14T18:12:41;4.70;;;4.23;;
29940;SDS011;16801;53.562;10.038;2023-12-14T18:16:02;17.60;;;15.77;;
29940;SDS011;16801;53.562;10.038;2023-12-14T18:19:24;32.93;;;25.17;;
29940;SDS011;16801;53.562;10.038;2023-12-14T18:22:48;12.10;;;10.20;;
29940;SDS011;16801;53.562;10.038;2023-12-14T18:26:09;17.93;;;12.20;;
29940;SDS011;16801;53.562;10.038;2023-12-14T18:29:30;28.87;;;23.10;;
29940;SDS011;16801;53.562;10.038;2023-12-14T18:32:51;26.97;;;22.03;;
29940;SDS011;16801;53.562;10.038;2023-12-14T18:36:13;12.40;;;11.10;;
29940;SDS011;16801;53.562;10.038;2023-12-14T18:39:36;13.13;;;11.00;;
29940;SDS011;16801;53.562;10.038;2023-12-14T18:42:59;17.60;;;11.67;;
29940;SDS011;16801;53.562;10.038;2023-12-14T18:46:22;14.97;;;10.07;;
29940;SDS011;16801;53.562;10.038;2023-12-14T18:49:45;7.57;;;6.03;;
29940;SDS011;16801;53.562;10.038;2023-12-14T18:53:07;4.30;;;3.67;;
29940;SDS011;16801;53.562;10.038;2023-12-14T18:56:32;5.60;;;5.07;;
29940;SDS011;16801;53.562;10.038;2023-12-14T18:59:53;7.93;;;5.37;;
29940;SDS011;16801;53.562;10.038;2023-12-14T19:03:15;30.00;;;25.10;;
29940;SDS011;16801;53.562;10.038;2023-12-14T19:06:37;52.10;;;39.77;;
29940;SDS011;16801;53.562;10.038;2023-12-14T19:09:59;37.63;;;30.43;;
29940;SDS011;16801;53.562;10.038;2023-12-14T19:13:21;26.90;;;24.10;;
29940;SDS011;16801;53.562;10.038;2023-12-14T19:16:43;37.60;;;26.63;;
29940;SDS011;16801;53.562;10.038;2023-12-14T19:20:06;68.10;;;51.43;;
29940;SDS011;16801;53.562;10.038;2023-12-14T19:23:28;39.80;;;27.73;;
29940;SDS011;16801;53.562;10.038;2023-12-14T19:26:51;31.10;;;23.97;;
29940;SDS011;16801;53.562;10.038;2023-12-14T19:30:15;14.97;;;9.77;;
29940;SDS011;16801;53.562;10.038;2023-12-14T19:33:36;16.43;;;12.87;;
29940;SDS011;16801;53.562;10.038;2023-12-14T19:36:59;19.13;;;15.70;;
29940;SDS011;16801;53.562;10.038;2023-12-14T19:40:19;39.17;;;26.30;;
29940;SDS011;16801;53.562;10.038;2023-12-14T19:43:41;12.27;;;10.00;;
29940;SDS011;16801;53.562;10.038;2023-12-14T19:47:05;33.87;;;27.50;;
29940;SDS011;16801;53.562;10.038;2023-12-14T19:50:26;30.13;;;25.60;;